Time;durP1;ratioP1;P1;durP2;ratioP2;P2;SDS_P1;SDS_P2;PMS_P1;PMS_P2;Temp;Humidity;BMP_temperature;BMP_pressure;BME280_temperature;BME280_humidity;BME280_pressure;Samples;Min_cycle;Max_cycle;Signal;HPM_P1;HPM_P2
2023/01/01 00:00:37;;;;;;;22.63;15.48;;;;;;;-140.72;100.00;53013.84;5126113;27;20474;-69
2023/01/01 00:03:02;;;;;;;20.02;12.82;;;;;;;-140.72;100.00;53003.69;5125624;27;20064;-71
2023/01/01 00:05:28;;;;;;;10.95;7.80;;;;;;;-140.72;100.00;53038.19;5126757;27;20464;-69
2023/01/01 00:07:53;;;;;;;14.98;9.52;;;;;;;-140.72;100.00;53024.00;5128104;27;20019;-69
2023/01/01 00:10:28;;;;;;;13.95;7.75;;;;;;;-140.72;100.00;53024.00;5126051;27;20067;-69
2023/01/01 00:12:54;;;;;;;14.93;8.90;;;;;;;-140.72;100.00;53028.06;5127461;27;20457;-68
2023/01/01 00:15:19;;;;;;;15.77;10.35;;;;;;;-140.72;100.00;53028.06;5125847;27;20023;-68
2023/01/01 00:17:45;;;;;;;10.40;7.65;;;;;;;-140.72;100.00;53036.16;5130098;27;20413;-68
2023/01/01 00:20:10;;;;;;;9.93;7.85;;;;;;;-140.72;100.00;53064.59;5119020;28;20019;-70
2023/01/01 00:22:36;;;;;;;11.68;8.13;;;;;;;-140.72;100.00;53032.13;5119011;28;20026;-71
2023/01/01 00:25:01;;;;;;;14.07;8.07;;;;;;;-140.72;100.00;53021.97;5129402;28;20019;-69
2023/01/01 00:27:27;;;;;;;13.35;7.05;;;;;;;-140.72;100.00;53044.28;5128746;28;20027;-70
2023/01/01 00:29:52;;;;;;;14.07;5.53;;;;;;;-140.72;100.00;53038.19;5127314;28;20519;-69
2023/01/01 00:32:17;;;;;;;17.40;11.90;;;;;;;-140.72;100.00;52973.25;5130389;28;20031;-71
2023/01/01 00:34:43;;;;;;;15.50;9.60;;;;;;;-140.72;100.00;53036.16;5114086;28;20034;-70
2023/01/01 00:37:08;;;;;;;12.20;8.60;;;;;;;-140.72;100.00;53011.81;5127361;28;20469;-73
2023/01/01 00:39:34;;;;;;;14.57;6.35;;;;;;;-140.72;100.00;53017.91;5124858;28;20035;-72
2023/01/01 00:41:59;;;;;;;17.08;5.65;;;;;;;-140.72;100.00;52999.66;5128431;28;20518;-72
2023/01/01 00:44:24;;;;;;;10.63;5.93;;;;;;;-140.72;100.00;53064.59;5127437;28;20024;-70
2023/01/01 00:46:50;;;;;;;9.38;4.35;;;;;;;-140.72;100.00;53024.00;5128881;28;20371;-69
2023/01/01 00:49:15;;;;;;;9.95;5.22;;;;;;;-140.72;100.00;53036.16;5125069;28;20026;-69
2023/01/01 00:51:40;;;;;;;9.02;5.80;;;;;;;-140.72;100.00;53017.91;5124259;28;20451;-73
2023/01/01 00:54:06;;;;;;;5.70;3.53;;;;;;;-140.72;100.00;53013.84;5125888;28;20450;-69
2023/01/01 00:56:32;;;;;;;7.95;4.03;;;;;;;-140.72;100.00;53042.25;5128533;28;20019;-70
2023/01/01 00:58:57;;;;;;;11.68;4.63;;;;;;;-140.72;100.00;53028.06;5125209;28;20023;-70
2023/01/01 01:01:23;;;;;;;7.50;3.17;;;;;;;-140.72;100.00;53005.72;5125539;28;20050;-74
2023/01/01 01:03:48;;;;;;;6.45;4.00;;;;;;;-140.72;100.00;52985.44;5127274;28;20403;-71
2023/01/01 01:06:17;;;;;;;3.75;2.40;;;;;;;-140.72;100.00;53046.31;5127241;28;20094;-70
2023/01/01 01:08:45;;;;;;;5.00;2.58;;;;;;;-140.72;100.00;53036.16;5124219;28;20027;-72
2023/01/01 01:11:20;;;;;;;3.97;2.15;;;;;;;-140.72;100.00;53017.91;5128025;28;20011;-69
2023/01/01 01:13:47;;;;;;;8.82;3.72;;;;;;;-140.72;100.00;53013.84;5125643;28;20028;-71
2023/01/01 01:16:16;;;;;;;4.85;1.92;;;;;;;-140.72;100.00;52999.66;5127902;28;20353;-69
2023/01/01 01:18:41;;;;;;;6.13;3.17;;;;;;;-140.72;100.00;53044.28;5126868;28;20072;-69
2023/01/01 01:21:07;;;;;;;7.22;2.78;;;;;;;-140.72;100.00;53011.81;5127387;28;20019;-70
2023/01/01 01:23:33;;;;;;;7.55;2.85;;;;;;;-140.72;100.00;53044.28;5125981;28;20345;-69
2023/01/01 01:26:17;;;;;;;6.45;2.78;;;;;;;-140.72;100.00;53026.03;5125999;28;20019;-71
2023/01/01 01:28:43;;;;;;;3.33;1.98;;;;;;;-140.72;100.00;53032.13;5122724;28;20015;-71
2023/01/01 01:31:09;;;;;;;11.40;2.40;;;;;;;-140.72;100.00;53044.28;5123127;27;20041;-71
2023/01/01 01:33:35;;;;;;;7.25;2.95;;;;;;;-140.72;100.00;53036.16;5130068;27;20040;-73
2023/01/01 01:36:02;;;;;;;5.63;2.20;;;;;;;-140.72;100.00;52999.66;5129146;27;20064;-71
2023/01/01 01:38:27;;;;;;;6.05;2.78;;;;;;;-140.72;100.00;52981.38;5127633;27;20286;-69
2023/01/01 01:40:53;;;;;;;7.70;2.70;;;;;;;-140.72;100.00;53030.09;5129587;27;20019;-72
2023/01/01 01:43:30;;;;;;;3.50;1.67;;;;;;;-140.72;100.00;53042.25;5131823;27;20609;-69
2023/01/01 01:46:00;;;;;;;5.20;1.92;;;;;;;-140.72;100.00;52995.59;5131311;27;20065;-69
2023/01/01 01:48:26;;;;;;;6.15;2.30;;;;;;;-140.72;100.00;53052.41;5129203;27;20038;-69
2023/01/01 01:50:54;;;;;;;6.68;2.03;;;;;;;-140.72;100.00;52995.59;5130269;27;20043;-73
2023/01/01 01:53:26;;;;;;;4.30;2.10;;;;;;;-140.72;100.00;53005.72;5131659;27;20039;-69
2023/01/01 01:55:58;;;;;;;4.15;2.05;;;;;;;-140.72;100.00;52991.53;5128795;27;20019;-69
2023/01/01 01:58:25;;;;;;;5.57;2.15;;;;;;;-140.72;100.00;53040.22;5131481;27;20030;-71
2023/01/01 02:00:51;;;;;;;6.10;2.63;;;;;;;-140.72;100.00;53013.84;5129264;27;20058;-68
2023/01/01 02:03:21;;;;;;;14.15;3.38;;;;;;;-140.72;100.00;53001.66;5130794;27;20062;-70
2023/01/01 02:05:49;;;;;;;5.20;2.10;;;;;;;-140.72;100.00;53019.94;5130084;27;20142;-72
2023/01/01 02:08:18;;;;;;;11.90;2.45;;;;;;;-140.72;100.00;53015.88;5131333;27;20023;-68
2023/01/01 02:10:43;;;;;;;4.30;1.83;;;;;;;-140.72;100.00;53048.34;5131764;27;20015;-69
2023/01/01 02:13:09;;;;;;;6.28;1.73;;;;;;;-140.72;100.00;53042.25;5131871;27;20045;-70
2023/01/01 02:15:51;;;;;;;4.80;1.63;;;;;;;-140.72;100.00;53019.94;5131271;27;20089;-70
2023/01/01 02:18:24;;;;;;;3.55;1.35;;;;;;;-140.72;100.00;52993.56;5131359;27;20015;-69
2023/01/01 02:21:01;;;;;;;7.10;1.33;;;;;;;-140.72;100.00;53052.41;5127419;27;20019;-73
2023/01/01 02:23:47;;;;;;;3.50;1.35;;;;;;;-140.72;100.00;53017.91;5130452;27;20024;-73
2023/01/01 02:26:37;;;;;;;2.13;1.10;;;;;;;-140.72;100.00;53011.81;5128968;27;20045;-72
2023/01/01 02:29:21;;;;;;;;;;;;;;;-140.72;100.00;53003.69;5126202;27;20023;-69
2023/01/01 02:31:54;;;;;;;3.92;1.50;;;;;;;-140.72;100.00;53036.16;5126166;27;20004;-70
2023/01/01 02:34:25;;;;;;;3.10;1.52;;;;;;;-140.72;100.00;53056.47;5131459;27;20023;-68
2023/01/01 02:36:54;;;;;;;1.70;1.05;;;;;;;-140.72;100.00;53028.06;5127484;27;20019;-70
2023/01/01 02:39:24;;;;;;;6.43;1.10;;;;;;;-140.72;100.00;53028.06;5122581;27;20715;-69
2023/01/01 02:41:53;;;;;;;4.18;1.65;;;;;;;-140.72;100.00;53030.09;5130366;27;20011;-72
2023/01/01 02:44:21;;;;;;;3.13;1.63;;;;;;;-140.72;100.00;53019.94;5119590;27;20030;-74
2023/01/01 02:46:47;;;;;;;2.95;1.27;;;;;;;-140.72;100.00;53026.03;5129318;27;20019;-70
2023/01/01 02:49:12;;;;;;;2.88;0.88;;;;;;;-140.72;100.00;53042.25;5119789;27;20039;-69
2023/01/01 02:51:46;;;;;;;3.53;1.00;;;;;;;-140.72;100.00;53042.25;5110880;27;20401;-68
2023/01/01 02:54:17;;;;;;;4.97;0.98;;;;;;;-140.72;100.00;53015.88;5111059;27;20043;-69
2023/01/01 02:57:17;;;;;;;3.28;1.50;;;;;;;-140.72;100.00;53036.16;5110743;27;20110;-71
2023/01/01 03:02:41;;;;;;;4.60;1.02;;;;;;;-140.72;100.00;53026.03;5130043;27;20033;-69
2023/01/01 03:05:18;;;;;;;5.00;1.30;;;;;;;-140.72;100.00;53003.69;5115051;27;20023;-68
2023/01/01 03:07:56;;;;;;;8.07;1.05;;;;;;;-140.72;100.00;53026.03;5116242;27;20413;-73
2023/01/01 03:10:50;;;;;;;4.18;1.45;;;;;;;-140.72;100.00;53042.25;5113426;27;20020;-70
2023/01/01 03:13:21;;;;;;;5.20;1.45;;;;;;;-140.72;100.00;53017.91;5114908;27;20031;-69
2023/01/01 03:15:59;;;;;;;5.93;1.52;;;;;;;-140.72;100.00;53040.22;5129213;27;20022;-71
2023/01/01 03:18:47;;;;;;;2.08;1.25;;;;;;;-140.72;100.00;53036.16;5129874;27;20019;-69
2023/01/01 03:21:21;;;;;;;5.60;1.02;;;;;;;-140.72;100.00;53050.38;5130796;27;20400;-71
2023/01/01 03:23:53;;;;;;;4.88;1.13;;;;;;;-140.72;100.00;53056.47;5110847;27;20023;-69
2023/01/01 03:26:21;;;;;;;5.57;1.23;;;;;;;-140.72;100.00;53086.91;5129897;27;20015;-69
2023/01/01 03:28:56;;;;;;;6.00;1.38;;;;;;;-140.72;100.00;53058.50;5128275;27;20374;-69
2023/01/01 03:31:24;;;;;;;4.93;0.88;;;;;;;-140.72;100.00;53076.75;5118092;27;20023;-70
2023/01/01 03:34:02;;;;;;;4.45;1.48;;;;;;;-140.72;100.00;53048.34;5121486;27;20026;-70
2023/01/01 03:36:34;;;;;;;5.95;0.85;;;;;;;-140.72;100.00;53056.47;5129929;27;20019;-68
2023/01/01 03:39:05;;;;;;;2.65;1.33;;;;;;;-140.72;100.00;53021.97;5123990;27;20102;-69
2023/01/01 03:41:45;;;;;;;2.25;1.05;;;;;;;-140.72;100.00;53030.09;5121858;27;20015;-69
2023/01/01 03:44:20;;;;;;;3.05;1.17;;;;;;;-140.72;100.00;53044.28;5124309;27;20467;-69
2023/01/01 03:46:45;;;;;;;3.13;0.80;;;;;;;-140.72;100.00;53046.31;5104880;28;20035;-70
2023/01/01 03:49:12;;;;;;;3.38;1.30;;;;;;;-140.72;100.00;53019.94;5128478;27;20455;-69
2023/01/01 03:51:55;;;;;;;0.75;0.50;;;;;;;-140.72;100.00;53015.88;5129957;27;20079;-69
2023/01/01 03:54:36;;;;;;;2.08;1.52;;;;;;;-140.72;100.00;53042.25;5114262;27;20031;-69
2023/01/01 03:57:09;;;;;;;4.10;1.08;;;;;;;-140.72;100.00;53056.47;5123282;27;20530;-69
2023/01/01 03:59:48;;;;;;;3.22;0.50;;;;;;;-140.72;100.00;53038.19;5123030;27;20550;-68
2023/01/01 04:02:19;;;;;;;1.27;0.70;;;;;;;-140.72;100.00;53044.28;5115843;27;20063;-69
2023/01/01 04:04:46;;;;;;;5.35;0.98;;;;;;;-140.72;100.00;53011.81;5117675;27;20473;-69
2023/01/01 04:07:12;;;;;;;7.75;1.08;;;;;;;-140.72;100.00;53068.66;5120157;27;20011;-71
2023/01/01 04:09:41;;;;;;;3.47;0.60;;;;;;;-140.72;100.00;53028.06;5111182;28;20451;-69
2023/01/01 04:12:07;;;;;;;8.57;1.30;;;;;;;-140.72;100.00;53070.69;5094475;28;20015;-69
2023/01/01 04:14:39;;;;;;;2.35;0.98;;;;;;;-140.72;100.00;53074.72;5111120;28;20494;-72
2023/01/01 04:17:07;;;;;;;2.90;0.95;;;;;;;-140.72;100.00;53062.56;5118255;27;20418;-69
2023/01/01 04:19:33;;;;;;;1.80;0.85;;;;;;;-140.72;100.00;53030.09;5130329;27;20023;-69
2023/01/01 04:21:59;;;;;;;3.33;0.70;;;;;;;-140.72;100.00;53048.34;5130081;28;20022;-71
2023/01/01 04:24:24;;;;;;;1.15;0.70;;;;;;;-140.72;100.00;53076.75;5126168;28;20024;-68
2023/01/01 04:26:51;;;;;;;5.75;1.20;;;;;;;-140.72;100.00;53048.34;5119924;28;20057;-68
2023/01/01 04:29:17;;;;;;;4.43;0.93;;;;;;;-140.72;100.00;53084.88;5125492;28;20065;-69
2023/01/01 04:31:43;;;;;;;3.83;1.25;;;;;;;-140.72;100.00;53044.28;5116160;28;20023;-73
2023/01/01 04:34:08;;;;;;;2.00;0.47;;;;;;;-140.72;100.00;53048.34;5121086;28;20473;-70
2023/01/01 04:36:34;;;;;;;5.32;0.98;;;;;;;-140.72;100.00;53040.22;5120273;28;20576;-69
2023/01/01 04:39:00;;;;;;;7.65;0.95;;;;;;;-140.72;100.00;53003.69;5124277;28;20017;-69
2023/01/01 04:41:26;;;;;;;4.60;1.02;;;;;;;-140.72;100.00;53052.41;5123893;28;20031;-69
2023/01/01 04:43:51;;;;;;;6.60;1.05;;;;;;;-140.72;100.00;53060.53;5118833;28;20102;-68
2023/01/01 04:46:19;;;;;;;2.03;0.95;;;;;;;-140.72;100.00;53040.22;5127475;28;20049;-72
2023/01/01 04:48:45;;;;;;;5.80;0.60;;;;;;;-140.72;100.00;53068.66;5113260;28;20016;-71
2023/01/01 04:51:12;;;;;;;3.50;0.70;;;;;;;-140.72;100.00;53060.53;5118059;28;20020;-69
2023/01/01 04:53:38;;;;;;;4.10;1.00;;;;;;;-140.72;100.00;53056.47;5126599;28;20062;-70
2023/01/01 04:56:08;;;;;;;2.90;0.90;;;;;;;-140.72;100.00;53068.66;5125870;28;20476;-68
2023/01/01 04:58:36;;;;;;;3.78;0.57;;;;;;;-140.72;100.00;53066.63;5118708;28;20024;-72
2023/01/01 05:01:01;;;;;;;1.35;0.70;;;;;;;-140.72;100.00;53028.06;5127133;28;20527;-68
2023/01/01 05:03:26;;;;;;;3.17;1.08;;;;;;;-140.72;100.00;53103.16;5124766;28;20043;-69
2023/01/01 05:06:03;;;;;;;14.32;0.68;;;;;;;-140.72;100.00;53066.63;5124512;27;20031;-68
2023/01/01 05:08:33;;;;;;;3.63;0.80;;;;;;;-140.72;100.00;53034.16;5127046;27;20417;-69
2023/01/01 05:11:05;;;;;;;;;;;;;;;-140.72;100.00;53044.28;5123040;27;20027;-72
2023/01/01 05:13:33;;;;;;;4.70;0.95;;;;;;;-140.72;100.00;53044.28;5125912;27;19904;-68
2023/01/01 05:16:02;;;;;;;1.77;0.50;;;;;;;-140.72;100.00;53034.16;5126164;27;20111;-68
2023/01/01 05:18:27;;;;;;;2.03;0.60;;;;;;;-140.72;100.00;53028.06;5122038;27;20150;-69
2023/01/01 05:20:53;;;;;;;1.55;0.80;;;;;;;-140.72;100.00;53064.59;5133287;27;20019;-73
2023/01/01 05:23:18;;;;;;;5.30;0.63;;;;;;;-140.72;100.00;53070.69;5132113;27;20515;-72
2023/01/01 05:25:44;;;;;;;0.70;0.45;;;;;;;-140.72;100.00;53056.47;5126802;27;20026;-71
2023/01/01 05:28:09;;;;;;;1.05;0.63;;;;;;;-140.72;100.00;53030.09;5131459;27;20473;-69
2023/01/01 05:30:39;;;;;;;1.35;0.35;;;;;;;-140.72;100.00;53066.63;5124358;27;20030;-70
2023/01/01 05:33:04;;;;;;;1.33;0.57;;;;;;;-140.72;100.00;53052.41;5132251;27;20031;-73
2023/01/01 05:35:29;;;;;;;3.42;0.52;;;;;;;-140.72;100.00;53038.19;5126997;27;20466;-71
2023/01/01 05:37:55;;;;;;;9.90;1.00;;;;;;;-140.72;100.00;53028.06;5125766;27;20058;-74
2023/01/01 05:40:21;;;;;;;2.55;0.80;;;;;;;-140.72;100.00;53070.69;5100922;27;20027;-69
2023/01/01 05:42:47;;;;;;;1.42;0.60;;;;;;;-140.72;100.00;53076.75;5132645;27;20034;-69
2023/01/01 05:45:12;;;;;;;4.75;0.65;;;;;;;-140.72;100.00;53052.41;5118206;27;20106;-69
2023/01/01 05:47:38;;;;;;;0.88;0.40;;;;;;;-140.72;100.00;53080.81;5114544;27;20035;-69
2023/01/01 05:50:03;;;;;;;3.90;0.47;;;;;;;-140.72;100.00;53060.53;5118758;27;20019;-73
2023/01/01 05:52:29;;;;;;;0.60;0.38;;;;;;;-140.72;100.00;53084.88;5122386;27;20092;-69
2023/01/01 05:54:54;;;;;;;2.05;0.77;;;;;;;-140.72;100.00;53056.47;5118226;27;20080;-69
2023/01/01 05:57:19;;;;;;;5.85;0.70;;;;;;;-140.72;100.00;53068.66;5132330;27;20106;-72
2023/01/01 05:59:45;;;;;;;2.88;0.60;;;;;;;-140.72;100.00;53082.84;5118175;27;20023;-69
2023/01/01 06:02:10;;;;;;;2.90;0.68;;;;;;;-140.72;100.00;53060.53;5122077;27;20513;-69
2023/01/01 06:04:36;;;;;;;2.65;0.90;;;;;;;-140.72;100.00;53032.13;5118566;27;20063;-71
2023/01/01 06:07:01;;;;;;;3.20;0.52;;;;;;;-140.72;100.00;53070.69;5113473;27;20030;-69
2023/01/01 06:09:27;;;;;;;3.15;0.50;;;;;;;-140.72;100.00;53046.31;5117868;27;20396;-69
2023/01/01 06:11:52;;;;;;;2.50;0.90;;;;;;;-140.72;100.00;53068.66;5125591;27;20028;-70
2023/01/01 06:14:17;;;;;;;6.43;1.33;;;;;;;-140.72;100.00;53034.16;5119635;27;20051;-69
2023/01/01 06:16:43;;;;;;;1.45;0.70;;;;;;;-140.72;100.00;53064.59;5121243;27;20031;-73
2023/01/01 06:19:08;;;;;;;1.95;0.50;;;;;;;-140.72;100.00;53070.69;5131539;27;20110;-69
2023/01/01 06:21:34;;;;;;;10.48;1.13;;;;;;;-140.72;100.00;53058.50;5130580;27;20035;-69
2023/01/01 06:23:59;;;;;;;1.58;0.65;;;;;;;-140.72;100.00;53072.69;5124508;27;20023;-72
2023/01/01 06:26:30;;;;;;;3.47;0.75;;;;;;;-140.72;100.00;53046.31;5125890;27;20110;-68
2023/01/01 06:28:56;;;;;;;4.78;0.90;;;;;;;-140.72;100.00;53054.44;5124611;27;20058;-72
2023/01/01 06:31:22;;;;;;;1.38;0.38;;;;;;;-140.72;100.00;53072.69;5128703;27;20408;-69
2023/01/01 06:33:49;;;;;;;1.00;0.50;;;;;;;-140.72;100.00;53062.56;5131668;27;20440;-68
2023/01/01 06:36:16;;;;;;;4.18;0.55;;;;;;;-140.72;100.00;53064.59;5116316;27;20019;-74
2023/01/01 06:38:45;;;;;;;7.07;0.65;;;;;;;-140.72;100.00;53068.66;5129880;27;20374;-71
2023/01/01 06:41:13;;;;;;;1.63;0.65;;;;;;;-140.72;100.00;53058.50;5127729;27;20101;-69
2023/01/01 06:43:39;;;;;;;0.82;0.40;;;;;;;-140.72;100.00;53068.66;5129987;27;20080;-69
2023/01/01 06:46:32;;;;;;;2.13;1.00;;;;;;;-140.72;100.00;53032.13;5129166;27;20439;-69
2023/01/01 06:49:04;;;;;;;3.45;0.75;;;;;;;-140.72;100.00;53093.00;5119710;27;20096;-69
2023/01/01 06:51:38;;;;;;;3.65;1.17;;;;;;;-140.72;100.00;53062.56;5127398;27;20023;-70
2023/01/01 06:54:04;;;;;;;1.92;0.77;;;;;;;-140.72;100.00;53070.69;5126276;27;20027;-69
2023/01/01 06:56:30;;;;;;;2.00;0.70;;;;;;;-140.72;100.00;53052.41;5125893;27;20459;-71
2023/01/01 06:58:56;;;;;;;1.30;0.38;;;;;;;-140.72;100.00;53072.69;5124670;27;20024;-69
2023/01/01 07:01:25;;;;;;;2.17;0.95;;;;;;;-140.72;100.00;53097.06;5126508;27;20404;-71
2023/01/01 07:04:15;;;;;;;3.80;1.02;;;;;;;-140.72;100.00;53084.88;5113187;27;20046;-69
2023/01/01 07:06:41;;;;;;;4.45;0.70;;;;;;;-140.72;100.00;53076.75;5110702;27;20035;-69
2023/01/01 07:09:07;;;;;;;3.20;1.30;;;;;;;-140.72;100.00;53095.03;5127327;27;20035;-70
2023/01/01 07:11:33;;;;;;;3.70;0.60;;;;;;;-140.72;100.00;53097.06;5129802;27;20447;-69
2023/01/01 07:13:58;;;;;;;2.45;0.32;;;;;;;-140.72;100.00;53101.13;5126181;27;20028;-69
2023/01/01 07:16:25;;;;;;;2.75;0.60;;;;;;;-140.72;100.00;53101.13;5127757;27;20027;-71
2023/01/01 07:18:50;;;;;;;3.65;0.88;;;;;;;-140.72;100.00;53113.28;5128595;27;20019;-69
2023/01/01 07:21:42;;;;;;;4.18;0.32;;;;;;;-140.72;100.00;53054.44;5126884;27;20470;-70
2023/01/01 07:24:10;;;;;;;0.98;0.50;;;;;;;-140.72;100.00;53097.06;5114338;27;20034;-69
2023/01/01 07:26:36;;;;;;;2.60;0.52;;;;;;;-140.72;100.00;53044.28;5123991;27;20058;-67
2023/01/01 07:29:02;;;;;;;4.13;0.77;;;;;;;-140.72;100.00;53066.63;5129936;27;20145;-69
2023/01/01 07:31:27;;;;;;;5.53;0.63;;;;;;;-140.72;100.00;53056.47;5124970;27;20027;-70
2023/01/01 07:33:53;;;;;;;1.95;0.47;;;;;;;-140.72;100.00;53093.00;5127432;27;20498;-69
2023/01/01 07:36:18;;;;;;;7.63;0.82;;;;;;;-140.72;100.00;53060.53;5128638;27;20038;-69
2023/01/01 07:38:43;;;;;;;5.90;0.85;;;;;;;-140.72;100.00;53097.06;5122688;27;20160;-70
2023/01/01 07:41:10;;;;;;;2.78;0.73;;;;;;;-140.72;100.00;53113.28;5122836;27;20011;-71
2023/01/01 07:43:35;;;;;;;1.20;0.57;;;;;;;-140.72;100.00;53088.94;5126506;27;20474;-69
2023/01/01 07:46:01;;;;;;;0.52;0.28;;;;;;;-140.72;100.00;53076.75;5127730;27;20023;-70
2023/01/01 07:48:29;;;;;;;1.60;0.65;;;;;;;-140.72;100.00;53044.28;5115130;27;20114;-69
2023/01/01 07:50:57;;;;;;;2.88;0.85;;;;;;;-140.72;100.00;53084.88;5121407;27;20055;-72
2023/01/01 07:53:23;;;;;;;2.38;0.68;;;;;;;-140.72;100.00;53080.81;5116588;27;20039;-69
2023/01/01 07:55:51;;;;;;;1.25;0.68;;;;;;;-140.72;100.00;53052.41;5110109;27;20023;-70
2023/01/01 07:58:16;;;;;;;4.28;0.90;;;;;;;-140.72;100.00;53109.22;5108365;27;20020;-69
2023/01/01 08:00:48;;;;;;;1.67;0.65;;;;;;;-140.72;100.00;53093.00;5124282;27;20038;-69
2023/01/01 08:03:15;;;;;;;8.38;1.15;;;;;;;-140.72;100.00;53111.25;5123835;27;20015;-72
2023/01/01 08:05:40;;;;;;;5.07;0.68;;;;;;;-140.72;100.00;53135.63;5116277;27;20012;-69
2023/01/01 08:08:07;;;;;;;8.00;0.98;;;;;;;-140.72;100.00;53093.00;5120100;27;20133;-74
2023/01/01 08:10:32;;;;;;;4.63;1.27;;;;;;;-140.72;100.00;53095.03;5117753;27;20031;-69
2023/01/01 08:12:59;;;;;;;3.38;0.98;;;;;;;-140.72;100.00;53109.22;5123560;27;20494;-69
2023/01/01 08:15:25;;;;;;;4.28;0.60;;;;;;;-140.72;100.00;53070.69;5119377;27;20122;-69
2023/01/01 08:17:58;;;;;;;2.80;0.80;;;;;;;-140.72;100.00;53068.66;5125130;27;20114;-69
2023/01/01 08:20:24;;;;;;;1.42;0.60;;;;;;;-140.72;100.00;53113.28;5094272;28;20031;-70
2023/01/01 08:22:50;;;;;;;1.50;0.57;;;;;;;-140.72;100.00;53062.56;5118159;28;20038;-70
2023/01/01 08:25:15;;;;;;;2.90;0.75;;;;;;;-140.72;100.00;53113.28;5118605;28;20031;-69
2023/01/01 08:27:40;;;;;;;6.70;1.17;;;;;;;-140.72;100.00;53038.19;5117532;28;20656;-71
2023/01/01 08:30:07;;;;;;;5.10;0.93;;;;;;;-140.72;100.00;53093.00;5117696;28;20076;-74
2023/01/01 08:32:32;;;;;;;3.38;0.88;;;;;;;-140.72;100.00;53072.69;5122167;28;20027;-69
2023/01/01 08:34:57;;;;;;;6.15;1.13;;;;;;;-140.72;100.00;53090.97;5115833;28;20450;-69
2023/01/01 08:37:26;;;;;;;5.43;0.95;;;;;;;-140.72;100.00;53074.72;5119127;28;20015;-74
2023/01/01 08:39:52;;;;;;;2.10;0.70;;;;;;;-140.72;100.00;53113.28;5125411;28;20080;-68
2023/01/01 08:42:20;;;;;;;3.30;0.82;;;;;;;-140.72;100.00;53082.84;5124743;27;20444;-69
2023/01/01 08:44:45;;;;;;;3.08;1.20;;;;;;;-140.72;100.00;53056.47;5122495;27;20498;-69
2023/01/01 08:47:23;;;;;;;3.53;0.73;;;;;;;-140.72;100.00;53088.94;5123727;27;20316;-69
2023/01/01 08:49:48;;;;;;;2.75;0.52;;;;;;;-140.72;100.00;53064.59;5123055;27;20093;-68
2023/01/01 08:52:14;;;;;;;0.63;0.40;;;;;;;-140.72;100.00;53058.50;5112007;27;20067;-68
2023/01/01 08:54:40;;;;;;;4.00;0.80;;;;;;;-140.72;100.00;53066.63;5120560;27;20035;-69
2023/01/01 08:57:05;;;;;;;2.08;0.70;;;;;;;-140.72;100.00;53095.03;5125062;27;20019;-69
2023/01/01 08:59:31;;;;;;;3.83;0.90;;;;;;;-140.72;100.00;53072.69;5114825;27;20427;-69
2023/01/01 09:01:56;;;;;;;1.17;0.47;;;;;;;-140.72;100.00;53093.00;5121671;27;20058;-69
2023/01/01 09:04:22;;;;;;;5.10;0.60;;;;;;;-140.72;100.00;53101.13;5123025;27;20459;-69
2023/01/01 09:06:47;;;;;;;5.03;1.63;;;;;;;-140.72;100.00;53082.84;5120755;27;20049;-71
2023/01/01 09:09:12;;;;;;;1.45;0.70;;;;;;;-140.72;100.00;53062.56;5129767;27;20015;-74
2023/01/01 09:11:38;;;;;;;1.42;0.68;;;;;;;-140.72;100.00;53078.78;5122445;27;20091;-68
2023/01/01 09:14:03;;;;;;;8.75;1.27;;;;;;;-140.72;100.00;53117.34;5118721;27;20499;-69
2023/01/01 09:16:29;;;;;;;2.72;0.90;;;;;;;-140.72;100.00;53121.41;5123314;27;20374;-70
2023/01/01 09:18:54;;;;;;;6.38;1.23;;;;;;;-140.72;100.00;53060.53;5123268;27;20123;-74
2023/01/01 09:21:20;;;;;;;1.95;0.57;;;;;;;-140.72;100.00;53068.66;5128002;27;20020;-71
2023/01/01 09:23:45;;;;;;;3.00;0.70;;;;;;;-140.72;100.00;53068.66;5122457;27;20531;-70
2023/01/01 09:26:11;;;;;;;0.93;0.65;;;;;;;-140.72;100.00;53070.69;5121482;27;20027;-69
2023/01/01 09:28:37;;;;;;;5.30;1.23;;;;;;;-140.72;100.00;53097.06;5126250;27;20107;-69
2023/01/01 09:31:05;;;;;;;3.78;1.35;;;;;;;-140.72;100.00;53052.41;5126551;27;20015;-69
2023/01/01 09:33:31;;;;;;;1.83;0.75;;;;;;;-140.72;100.00;53056.47;5128739;27;20069;-73
2023/01/01 09:36:12;;;;;;;4.80;1.33;;;;;;;-140.72;100.00;53052.41;5126931;27;20059;-69
2023/01/01 09:38:37;;;;;;;3.50;0.82;;;;;;;-140.72;100.00;53056.47;5126422;27;20026;-70
2023/01/01 09:41:11;;;;;;;1.17;0.52;;;;;;;-140.72;100.00;53048.34;5128306;27;20023;-72
2023/01/01 09:43:49;;;;;;;2.47;0.70;;;;;;;-140.72;100.00;53032.13;5126350;27;20122;-70
2023/01/01 09:46:15;;;;;;;1.48;0.65;;;;;;;-140.72;100.00;53066.63;5128586;27;20026;-73
2023/01/01 09:48:51;;;;;;;4.97;0.68;;;;;;;-140.72;100.00;53056.47;5128014;27;20062;-71
2023/01/01 09:51:20;;;;;;;2.10;0.82;;;;;;;-140.72;100.00;53042.25;5128791;27;20034;-69
2023/01/01 09:53:49;;;;;;;2.42;0.47;;;;;;;-140.72;100.00;53050.38;5129073;27;20463;-74
2023/01/01 09:56:21;;;;;;;3.22;0.82;;;;;;;-140.72;100.00;53072.69;5129777;27;20066;-73
2023/01/01 09:58:46;;;;;;;1.38;0.40;;;;;;;-140.72;100.00;53036.16;5129263;27;20102;-70
2023/01/01 10:01:58;;;;;;;3.13;0.93;;;;;;;-140.72;100.00;53017.91;5124192;27;20114;-70
2023/01/01 10:04:52;;;;;;;3.75;0.70;;;;;;;-140.72;100.00;53044.28;5124283;27;20023;-70
2023/01/01 10:07:32;;;;;;;2.63;0.70;;;;;;;-140.72;100.00;53064.59;5121149;27;20047;-69
2023/01/01 10:10:31;;;;;;;6.95;1.00;;;;;;;-140.72;100.00;53072.69;5127379;27;20031;-70
2023/01/01 10:13:15;;;;;;;4.28;0.75;;;;;;;-140.72;100.00;53046.31;5121676;27;20030;-69
2023/01/01 10:15:53;;;;;;;4.43;1.15;;;;;;;-140.72;100.00;53066.63;5126870;27;20071;-72
2023/01/01 10:18:33;;;;;;;2.35;1.00;;;;;;;-140.72;100.00;53046.31;5121904;27;20106;-75
2023/01/01 10:20:58;;;;;;;;;;;;;;;-140.72;100.00;53036.16;5130716;27;20019;-70
2023/01/01 10:23:27;;;;;;;8.02;1.00;;;;;;;-140.72;100.00;53052.41;5128403;27;20462;-70
2023/01/01 10:25:54;;;;;;;5.40;1.17;;;;;;;-140.72;100.00;53062.56;5127079;27;20632;-70
2023/01/01 10:28:39;;;;;;;3.80;0.95;;;;;;;-140.72;100.00;53042.25;5127600;27;20065;-68
2023/01/01 10:31:17;;;;;;;7.65;1.23;;;;;;;-140.72;100.00;53015.88;5130187;27;20011;-70
2023/01/01 10:33:44;;;;;;;8.10;1.10;;;;;;;-140.72;100.00;53054.44;5129867;27;20106;-71
2023/01/01 10:36:13;;;;;;;7.60;1.40;;;;;;;-140.72;100.00;53036.16;5127586;27;20022;-69
2023/01/01 10:38:39;;;;;;;6.70;1.10;;;;;;;-140.72;100.00;53024.00;5126356;27;20366;-74
2023/01/01 10:41:10;;;;;;;4.45;1.20;;;;;;;-140.72;100.00;53058.50;5126919;27;20042;-69
2023/01/01 10:43:35;;;;;;;5.60;0.88;;;;;;;-140.72;100.00;53105.19;5128417;27;20031;-70
2023/01/01 10:46:02;;;;;;;2.97;1.17;;;;;;;-140.72;100.00;53078.78;5125056;27;20043;-70
2023/01/01 10:48:29;;;;;;;1.48;0.60;;;;;;;-140.72;100.00;53052.41;5123418;27;20292;-69
2023/01/01 10:51:01;;;;;;;5.93;1.42;;;;;;;-140.72;100.00;53024.00;5126390;27;20015;-70
2023/01/01 10:53:34;;;;;;;3.17;1.02;;;;;;;-140.72;100.00;52989.50;5127032;27;20039;-70
2023/01/01 10:56:13;;;;;;;6.53;1.15;;;;;;;-140.72;100.00;52991.53;5128576;27;20427;-70
2023/01/01 10:58:44;;;;;;;6.95;1.10;;;;;;;-140.72;100.00;52987.47;5128838;27;20025;-74
2023/01/01 11:01:28;;;;;;;4.60;1.10;;;;;;;-140.72;100.00;53052.41;5128043;27;20022;-70
2023/01/01 11:03:57;;;;;;;3.28;1.02;;;;;;;-140.72;100.00;53038.19;5126914;27;20019;-73
2023/01/01 11:06:26;;;;;;;5.65;1.10;;;;;;;-140.72;100.00;53032.13;5128726;27;20027;-71
2023/01/01 11:08:56;;;;;;;3.80;0.82;;;;;;;-140.72;100.00;53040.22;5125204;27;20026;-71
2023/01/01 11:11:45;;;;;;;2.65;0.75;;;;;;;-140.72;100.00;53003.69;5127649;27;20019;-71
2023/01/01 11:14:26;;;;;;;4.60;1.23;;;;;;;-140.72;100.00;53060.53;5127091;27;20011;-72
2023/01/01 11:16:53;;;;;;;3.22;1.08;;;;;;;-140.72;100.00;53040.22;5118562;27;20030;-72
2023/01/01 11:19:28;;;;;;;6.53;1.55;;;;;;;-140.72;100.00;53021.97;5126586;27;20149;-70
2023/01/01 11:21:54;;;;;;;3.53;0.90;;;;;;;-140.72;100.00;53028.06;5116025;27;20053;-71